sensor_id;sensor_type;location;lat;lon;timestamp;P1;durP1;ratioP1;P2;durP2;ratioP2
42690;SDS011;28306;55.744;37.578;2022-07-12T00:01:30;4.05;;;2.22;;
42690;SDS011;28306;55.744;37.578;2022-07-12T00:03:56;2.67;;;1.90;;
42690;SDS011;28306;55.744;37.578;2022-07-12T00:06:21;3.55;;;2.20;;
42690;SDS011;28306;55.744;37.578;2022-07-12T00:08:47;4.35;;;2.70;;
42690;SDS011;28306;55.744;37.578;2022-07-12T00:11:13;3.90;;;2.50;;
42690;SDS011;28306;55.744;37.578;2022-07-12T00:13:38;4.78;;;2.38;;
42690;SDS011;28306;55.744;37.578;2022-07-12T00:16:04;3.08;;;1.77;;
42690;SDS011;28306;55.744;37.578;2022-07-12T00:18:30;3.53;;;2.30;;
42690;SDS011;28306;55.744;37.578;2022-07-12T00:20:56;3.55;;;2.20;;
42690;SDS011;28306;55.744;37.578;2022-07-12T00:23:22;3.08;;;2.00;;
42690;SDS011;28306;55.744;37.578;2022-07-12T00:25:47;3.35;;;1.98;;
42690;SDS011;28306;55.744;37.578;2022-07-12T00:28:13;6.03;;;4.47;;
42690;SDS011;28306;55.744;37.578;2022-07-12T00:30:39;4.50;;;2.17;;
42690;SDS011;28306;55.744;37.578;2022-07-12T00:33:04;5.93;;;2.38;;
42690;SDS011;28306;55.744;37.578;2022-07-12T00:35:30;3.25;;;2.38;;
42690;SDS011;28306;55.744;37.578;2022-07-12T00:37:55;4.35;;;2.50;;
42690;SDS011;28306;55.744;37.578;2022-07-12T00:40:21;4.43;;;2.40;;
42690;SDS011;28306;55.744;37.578;2022-07-12T00:42:47;4.18;;;2.85;;
42690;SDS011;28306;55.744;37.578;2022-07-12T00:45:13;5.25;;;3.90;;
42690;SDS011;28306;55.744;37.578;2022-07-12T00:47:45;4.50;;;2.47;;
42690;SDS011;28306;55.744;37.578;2022-07-12T00:52:40;3.58;;;2.72;;
42690;SDS011;28306;55.744;37.578;2022-07-12T00:55:07;12.07;;;5.50;;
42690;SDS011;28306;55.744;37.578;2022-07-12T00:57:34;4.30;;;3.20;;
42690;SDS011;28306;55.744;37.578;2022-07-12T01:00:01;4.82;;;2.90;;
42690;SDS011;28306;55.744;37.578;2022-07-12T01:02:28;3.60;;;2.42;;
42690;SDS011;28306;55.744;37.578;2022-07-12T01:04:54;3.72;;;2.63;;
42690;SDS011;28306;55.744;37.578;2022-07-12T01:07:20;5.20;;;2.67;;
42690;SDS011;28306;55.744;37.578;2022-07-12T01:09:48;4.50;;;2.17;;
42690;SDS011;28306;55.744;37.578;2022-07-12T01:12:15;6.88;;;2.65;;
42690;SDS011;28306;55.744;37.578;2022-07-12T01:14:41;4.88;;;2.58;;
42690;SDS011;28306;55.744;37.578;2022-07-12T01:17:08;4.55;;;2.30;;
42690;SDS011;28306;55.744;37.578;2022-07-12T01:19:34;6.50;;;2.60;;
42690;SDS011;28306;55.744;37.578;2022-07-12T01:22:02;3.90;;;2.30;;
42690;SDS011;28306;55.744;37.578;2022-07-12T01:24:32;3.78;;;2.00;;
42690;SDS011;28306;55.744;37.578;2022-07-12T01:26:58;3.65;;;2.17;;
42690;SDS011;28306;55.744;37.578;2022-07-12T01:29:24;5.45;;;2.63;;
42690;SDS011;28306;55.744;37.578;2022-07-12T01:31:51;4.38;;;2.47;;
42690;SDS011;28306;55.744;37.578;2022-07-12T01:34:17;6.00;;;2.50;;
42690;SDS011;28306;55.744;37.578;2022-07-12T01:36:44;3.17;;;2.60;;
42690;SDS011;28306;55.744;37.578;2022-07-12T01:39:11;9.82;;;2.70;;
42690;SDS011;28306;55.744;37.578;2022-07-12T01:41:36;4.75;;;2.58;;
42690;SDS011;28306;55.744;37.578;2022-07-12T01:44:03;3.60;;;2.60;;
42690;SDS011;28306;55.744;37.578;2022-07-12T01:46:29;3.60;;;2.50;;
42690;SDS011;28306;55.744;37.578;2022-07-12T01:48:54;5.35;;;2.75;;
42690;SDS011;28306;55.744;37.578;2022-07-12T01:51:21;8.07;;;3.53;;
42690;SDS011;28306;55.744;37.578;2022-07-12T01:53:47;6.70;;;2.67;;
42690;SDS011;28306;55.744;37.578;2022-07-12T01:56:12;4.00;;;2.80;;
42690;SDS011;28306;55.744;37.578;2022-07-12T01:58:38;5.75;;;3.17;;
42690;SDS011;28306;55.744;37.578;2022-07-12T02:01:04;5.05;;;3.10;;
42690;SDS011;28306;55.744;37.578;2022-07-12T02:03:32;9.25;;;3.95;;
42690;SDS011;28306;55.744;37.578;2022-07-12T02:05:59;4.25;;;3.20;;
42690;SDS011;28306;55.744;37.578;2022-07-12T02:08:25;5.82;;;3.53;;
42690;SDS011;28306;55.744;37.578;2022-07-12T02:10:51;6.15;;;3.65;;
42690;SDS011;28306;55.744;37.578;2022-07-12T02:13:16;4.55;;;3.17;;
42690;SDS011;28306;55.744;37.578;2022-07-12T02:15:42;5.07;;;3.85;;
42690;SDS011;28306;55.744;37.578;2022-07-12T02:18:07;5.75;;;3.20;;
42690;SDS011;28306;55.744;37.578;2022-07-12T02:20:33;5.85;;;3.50;;
42690;SDS011;28306;55.744;37.578;2022-07-12T02:22:59;4.57;;;3.30;;
42690;SDS011;28306;55.744;37.578;2022-07-12T02:25:24;5.10;;;3.70;;
42690;SDS011;28306;55.744;37.578;2022-07-12T02:27:50;7.15;;;3.70;;
42690;SDS011;28306;55.744;37.578;2022-07-12T02:30:16;5.07;;;3.28;;
42690;SDS011;28306;55.744;37.578;2022-07-12T02:32:41;15.60;;;3.60;;
42690;SDS011;28306;55.744;37.578;2022-07-12T02:35:07;5.75;;;3.03;;
42690;SDS011;28306;55.744;37.578;2022-07-12T02:37:33;11.77;;;3.67;;
42690;SDS011;28306;55.744;37.578;2022-07-12T02:39:58;5.78;;;3.60;;
42690;SDS011;28306;55.744;37.578;2022-07-12T02:42:43;7.82;;;3.55;;
42690;SDS011;28306;55.744;37.578;2022-07-12T02:45:11;5.93;;;2.90;;
42690;SDS011;28306;55.744;37.578;2022-07-12T02:47:40;6.55;;;3.22;;
42690;SDS011;28306;55.744;37.578;2022-07-12T02:50:07;8.70;;;3.45;;
42690;SDS011;28306;55.744;37.578;2022-07-12T02:52:33;5.63;;;3.45;;
42690;SDS011;28306;55.744;37.578;2022-07-12T02:54:59;7.88;;;3.38;;
42690;SDS011;28306;55.744;37.578;2022-07-12T02:57:25;7.47;;;3.28;;
42690;SDS011;28306;55.744;37.578;2022-07-12T02:59:50;5.50;;;3.17;;
42690;SDS011;28306;55.744;37.578;2022-07-12T03:02:16;6.47;;;2.92;;
42690;SDS011;28306;55.744;37.578;2022-07-12T03:04:42;7.68;;;3.28;;
42690;SDS011;28306;55.744;37.578;2022-07-12T03:07:07;6.38;;;2.92;;
42690;SDS011;28306;55.744;37.578;2022-07-12T03:09:33;5.38;;;3.60;;
42690;SDS011;28306;55.744;37.578;2022-07-12T03:11:58;10.70;;;2.97;;
42690;SDS011;28306;55.744;37.578;2022-07-12T03:14:24;6.43;;;3.67;;
42690;SDS011;28306;55.744;37.578;2022-07-12T03:16:50;9.27;;;3.22;;
42690;SDS011;28306;55.744;37.578;2022-07-12T03:19:16;10.10;;;3.88;;
42690;SDS011;28306;55.744;37.578;2022-07-12T03:21:41;6.43;;;3.88;;
42690;SDS011;28306;55.744;37.578;2022-07-12T03:24:07;7.25;;;3.25;;
42690;SDS011;28306;55.744;37.578;2022-07-12T03:26:33;4.43;;;3.17;;
42690;SDS011;28306;55.744;37.578;2022-07-12T03:28:59;9.80;;;3.65;;
42690;SDS011;28306;55.744;37.578;2022-07-12T03:31:27;4.78;;;3.13;;
42690;SDS011;28306;55.744;37.578;2022-07-12T03:33:53;4.88;;;3.17;;
42690;SDS011;28306;55.744;37.578;2022-07-12T03:36:19;4.70;;;3.33;;
42690;SDS011;28306;55.744;37.578;2022-07-12T03:38:45;7.50;;;3.80;;
42690;SDS011;28306;55.744;37.578;2022-07-12T03:41:11;7.45;;;3.63;;
42690;SDS011;28306;55.744;37.578;2022-07-12T03:43:37;9.70;;;3.58;;
42690;SDS011;28306;55.744;37.578;2022-07-12T03:46:02;7.07;;;2.90;;
42690;SDS011;28306;55.744;37.578;2022-07-12T03:48:28;7.32;;;3.45;;
42690;SDS011;28306;55.744;37.578;2022-07-12T03:50:54;9.10;;;3.35;;
42690;SDS011;28306;55.744;37.578;2022-07-12T03:53:21;6.82;;;3.42;;
42690;SDS011;28306;55.744;37.578;2022-07-12T03:55:47;6.78;;;3.50;;
42690;SDS011;28306;55.744;37.578;2022-07-12T03:58:13;8.48;;;3.17;;
42690;SDS011;28306;55.744;37.578;2022-07-12T04:00:38;7.75;;;3.28;;
42690;SDS011;28306;55.744;37.578;2022-07-12T04:03:08;5.50;;;3.47;;
42690;SDS011;28306;55.744;37.578;2022-07-12T04:05:36;5.50;;;3.40;;
42690;SDS011;28306;55.744;37.578;2022-07-12T04:08:02;4.53;;;3.35;;
42690;SDS011;28306;55.744;37.578;2022-07-12T04:10:28;9.80;;;3.45;;
42690;SDS011;28306;55.744;37.578;2022-07-12T04:12:54;6.93;;;3.65;;
42690;SDS011;28306;55.744;37.578;2022-07-12T04:15:19;10.02;;;4.22;;
42690;SDS011;28306;55.744;37.578;2022-07-12T04:17:45;8.50;;;3.90;;
42690;SDS011;28306;55.744;37.578;2022-07-12T04:20:11;6.88;;;3.50;;
42690;SDS011;28306;55.744;37.578;2022-07-12T04:22:37;6.90;;;3.78;;
42690;SDS011;28306;55.744;37.578;2022-07-12T04:25:04;9.00;;;4.75;;
42690;SDS011;28306;55.744;37.578;2022-07-12T04:27:31;7.03;;;3.35;;
42690;SDS011;28306;55.744;37.578;2022-07-12T04:29:57;6.50;;;4.40;;
42690;SDS011;28306;55.744;37.578;2022-07-12T04:32:23;7.05;;;3.90;;
42690;SDS011;28306;55.744;37.578;2022-07-12T04:34:48;6.25;;;4.45;;
42690;SDS011;28306;55.744;37.578;2022-07-12T04:37:14;7.40;;;4.18;;
42690;SDS011;28306;55.744;37.578;2022-07-12T04:39:39;7.90;;;3.90;;
42690;SDS011;28306;55.744;37.578;2022-07-12T04:42:05;7.15;;;4.38;;
42690;SDS011;28306;55.744;37.578;2022-07-12T04:44:31;7.97;;;4.22;;
42690;SDS011;28306;55.744;37.578;2022-07-12T04:46:56;9.00;;;4.47;;
42690;SDS011;28306;55.744;37.578;2022-07-12T04:49:22;8.85;;;4.55;;
42690;SDS011;28306;55.744;37.578;2022-07-12T04:51:47;8.27;;;3.88;;
42690;SDS011;28306;55.744;37.578;2022-07-12T04:54:13;9.82;;;4.40;;
42690;SDS011;28306;55.744;37.578;2022-07-12T04:56:39;12.15;;;4.30;;
42690;SDS011;28306;55.744;37.578;2022-07-12T04:59:04;6.95;;;4.22;;
42690;SDS011;28306;55.744;37.578;2022-07-12T05:01:30;7.20;;;4.30;;
42690;SDS011;28306;55.744;37.578;2022-07-12T05:03:57;4.90;;;4.13;;
42690;SDS011;28306;55.744;37.578;2022-07-12T05:06:23;8.75;;;4.25;;
42690;SDS011;28306;55.744;37.578;2022-07-12T05:08:49;9.68;;;4.72;;
42690;SDS011;28306;55.744;37.578;2022-07-12T05:11:15;9.85;;;4.28;;
42690;SDS011;28306;55.744;37.578;2022-07-12T05:13:40;7.78;;;4.07;;
42690;SDS011;28306;55.744;37.578;2022-07-12T05:16:07;9.15;;;4.00;;
42690;SDS011;28306;55.744;37.578;2022-07-12T05:18:33;8.85;;;4.20;;
42690;SDS011;28306;55.744;37.578;2022-07-12T05:20:59;6.38;;;4.25;;
42690;SDS011;28306;55.744;37.578;2022-07-12T05:23:25;11.07;;;4.43;;
42690;SDS011;28306;55.744;37.578;2022-07-12T05:25:51;12.95;;;4.38;;
42690;SDS011;28306;55.744;37.578;2022-07-12T05:28:16;5.50;;;3.58;;
42690;SDS011;28306;55.744;37.578;2022-07-12T05:30:42;7.75;;;4.15;;
42690;SDS011;28306;55.744;37.578;2022-07-12T05:33:08;6.28;;;3.85;;
42690;SDS011;28306;55.744;37.578;2022-07-12T05:35:34;8.93;;;3.88;;
42690;SDS011;28306;55.744;37.578;2022-07-12T05:38:00;12.02;;;4.20;;
42690;SDS011;28306;55.744;37.578;2022-07-12T05:40:26;8.68;;;4.15;;
42690;SDS011;28306;55.744;37.578;2022-07-12T05:42:52;8.52;;;4.40;;
42690;SDS011;28306;55.744;37.578;2022-07-12T05:45:18;14.25;;;4.40;;
42690;SDS011;28306;55.744;37.578;2022-07-12T05:47:43;11.98;;;4.35;;
42690;SDS011;28306;55.744;37.578;2022-07-12T05:50:10;12.13;;;4.13;;
42690;SDS011;28306;55.744;37.578;2022-07-12T05:52:36;8.50;;;4.32;;
42690;SDS011;28306;55.744;37.578;2022-07-12T05:55:20;9.75;;;3.80;;
42690;SDS011;28306;55.744;37.578;2022-07-12T05:57:46;8.40;;;4.20;;
42690;SDS011;28306;55.744;37.578;2022-07-12T06:00:11;7.97;;;3.80;;
42690;SDS011;28306;55.744;37.578;2022-07-12T06:02:37;6.13;;;4.10;;
42690;SDS011;28306;55.744;37.578;2022-07-12T06:05:03;8.00;;;4.13;;
42690;SDS011;28306;55.744;37.578;2022-07-12T06:07:28;12.50;;;4.13;;
42690;SDS011;28306;55.744;37.578;2022-07-12T06:09:54;5.95;;;3.90;;
42690;SDS011;28306;55.744;37.578;2022-07-12T06:12:20;9.95;;;3.83;;
42690;SDS011;28306;55.744;37.578;2022-07-12T06:14:45;8.18;;;3.58;;
42690;SDS011;28306;55.744;37.578;2022-07-12T06:17:13;5.63;;;4.18;;
42690;SDS011;28306;55.744;37.578;2022-07-12T06:19:38;7.47;;;4.50;;
42690;SDS011;28306;55.744;37.578;2022-07-12T06:22:04;10.07;;;4.25;;
42690;SDS011;28306;55.744;37.578;2022-07-12T06:24:30;10.90;;;4.22;;
42690;SDS011;28306;55.744;37.578;2022-07-12T06:26:55;8.52;;;4.53;;
42690;SDS011;28306;55.744;37.578;2022-07-12T06:29:21;12.40;;;4.13;;
42690;SDS011;28306;55.744;37.578;2022-07-12T06:31:46;10.60;;;3.90;;
42690;SDS011;28306;55.744;37.578;2022-07-12T06:34:12;5.20;;;3.63;;
42690;SDS011;28306;55.744;37.578;2022-07-12T06:36:38;11.50;;;3.90;;
42690;SDS011;28306;55.744;37.578;2022-07-12T06:39:03;13.38;;;4.53;;
42690;SDS011;28306;55.744;37.578;2022-07-12T06:41:29;15.40;;;4.40;;
42690;SDS011;28306;55.744;37.578;2022-07-12T06:43:55;10.95;;;3.97;;
42690;SDS011;28306;55.744;37.578;2022-07-12T06:46:20;13.15;;;5.07;;
42690;SDS011;28306;55.744;37.578;2022-07-12T06:48:46;5.72;;;4.38;;
42690;SDS011;28306;55.744;37.578;2022-07-12T06:51:12;8.82;;;4.13;;
42690;SDS011;28306;55.744;37.578;2022-07-12T06:53:37;6.38;;;4.30;;
42690;SDS011;28306;55.744;37.578;2022-07-12T06:56:03;13.75;;;4.05;;
42690;SDS011;28306;55.744;37.578;2022-07-12T06:58:29;13.30;;;4.28;;
42690;SDS011;28306;55.744;37.578;2022-07-12T07:00:54;11.63;;;4.80;;
42690;SDS011;28306;55.744;37.578;2022-07-12T07:03:20;9.80;;;4.93;;
42690;SDS011;28306;55.744;37.578;2022-07-12T07:05:46;14.50;;;3.95;;
42690;SDS011;28306;55.744;37.578;2022-07-12T07:08:11;12.30;;;6.03;;
42690;SDS011;28306;55.744;37.578;2022-07-12T07:10:37;7.90;;;4.60;;
42690;SDS011;28306;55.744;37.578;2022-07-12T07:13:02;15.73;;;4.30;;
42690;SDS011;28306;55.744;37.578;2022-07-12T07:15:28;9.35;;;3.95;;
42690;SDS011;28306;55.744;37.578;2022-07-12T07:17:54;10.90;;;4.70;;
42690;SDS011;28306;55.744;37.578;2022-07-12T07:20:19;13.98;;;6.50;;
42690;SDS011;28306;55.744;37.578;2022-07-12T07:22:45;7.50;;;4.45;;
42690;SDS011;28306;55.744;37.578;2022-07-12T07:25:11;17.00;;;4.70;;
42690;SDS011;28306;55.744;37.578;2022-07-12T07:27:37;15.75;;;4.95;;
42690;SDS011;28306;55.744;37.578;2022-07-12T07:30:04;8.40;;;4.45;;
42690;SDS011;28306;55.744;37.578;2022-07-12T07:33:06;9.45;;;5.00;;
42690;SDS011;28306;55.744;37.578;2022-07-12T07:35:31;17.48;;;4.63;;
42690;SDS011;28306;55.744;37.578;2022-07-12T07:37:57;8.38;;;4.22;;
42690;SDS011;28306;55.744;37.578;2022-07-12T07:40:22;9.00;;;4.15;;
42690;SDS011;28306;55.744;37.578;2022-07-12T07:42:48;19.95;;;4.38;;
42690;SDS011;28306;55.744;37.578;2022-07-12T07:45:14;14.65;;;4.07;;
42690;SDS011;28306;55.744;37.578;2022-07-12T07:47:46;8.68;;;4.10;;
42690;SDS011;28306;55.744;37.578;2022-07-12T07:50:13;9.20;;;4.40;;
42690;SDS011;28306;55.744;37.578;2022-07-12T07:52:40;9.95;;;4.68;;
42690;SDS011;28306;55.744;37.578;2022-07-12T07:55:05;7.93;;;4.18;;
42690;SDS011;28306;55.744;37.578;2022-07-12T07:57:31;16.33;;;5.07;;
42690;SDS011;28306;55.744;37.578;2022-07-12T07:59:57;6.95;;;4.38;;
42690;SDS011;28306;55.744;37.578;2022-07-12T08:02:22;8.07;;;4.22;;
42690;SDS011;28306;55.744;37.578;2022-07-12T08:04:48;12.13;;;4.50;;
42690;SDS011;28306;55.744;37.578;2022-07-12T08:07:14;14.45;;;3.92;;
42690;SDS011;28306;55.744;37.578;2022-07-12T08:09:39;7.90;;;3.80;;
42690;SDS011;28306;55.744;37.578;2022-07-12T08:12:05;15.32;;;3.83;;
42690;SDS011;28306;55.744;37.578;2022-07-12T08:14:31;8.98;;;4.45;;
42690;SDS011;28306;55.744;37.578;2022-07-12T08:16:56;10.00;;;3.70;;
42690;SDS011;28306;55.744;37.578;2022-07-12T08:19:22;7.82;;;3.70;;
42690;SDS011;28306;55.744;37.578;2022-07-12T08:21:48;11.13;;;3.92;;
42690;SDS011;28306;55.744;37.578;2022-07-12T08:24:13;8.25;;;3.28;;
42690;SDS011;28306;55.744;37.578;2022-07-12T08:26:39;7.97;;;2.88;;
42690;SDS011;28306;55.744;37.578;2022-07-12T08:29:05;9.05;;;3.63;;
42690;SDS011;28306;55.744;37.578;2022-07-12T08:31:31;7.38;;;2.67;;
42690;SDS011;28306;55.744;37.578;2022-07-12T08:33:56;11.60;;;3.22;;
42690;SDS011;28306;55.744;37.578;2022-07-12T08:36:22;8.50;;;3.60;;
42690;SDS011;28306;55.744;37.578;2022-07-12T08:38:48;12.55;;;3.70;;
42690;SDS011;28306;55.744;37.578;2022-07-12T08:41:14;6.05;;;3.15;;
42690;SDS011;28306;55.744;37.578;2022-07-12T08:43:40;8.90;;;3.78;;
42690;SDS011;28306;55.744;37.578;2022-07-12T08:46:11;18.30;;;12.60;;
42690;SDS011;28306;55.744;37.578;2022-07-12T08:48:38;11.20;;;3.92;;
42690;SDS011;28306;55.744;37.578;2022-07-12T08:51:07;11.23;;;3.50;;
42690;SDS011;28306;55.744;37.578;2022-07-12T08:53:35;10.00;;;3.70;;
42690;SDS011;28306;55.744;37.578;2022-07-12T08:56:05;7.05;;;3.70;;
42690;SDS011;28306;55.744;37.578;2022-07-12T08:58:31;20.67;;;3.72;;
42690;SDS011;28306;55.744;37.578;2022-07-12T09:00:57;7.22;;;3.67;;
42690;SDS011;28306;55.744;37.578;2022-07-12T09:03:23;5.03;;;3.08;;
42690;SDS011;28306;55.744;37.578;2022-07-12T09:05:50;10.70;;;3.70;;
42690;SDS011;28306;55.744;37.578;2022-07-12T09:08:18;6.88;;;3.35;;
42690;SDS011;28306;55.744;37.578;2022-07-12T09:13:14;6.45;;;3.17;;
42690;SDS011;28306;55.744;37.578;2022-07-12T09:15:40;10.00;;;3.25;;
42690;SDS011;28306;55.744;37.578;2022-07-12T09:18:06;7.07;;;3.55;;
42690;SDS011;28306;55.744;37.578;2022-07-12T09:20:41;4.20;;;2.88;;
42690;SDS011;28306;55.744;37.578;2022-07-12T09:23:11;9.10;;;3.28;;
42690;SDS011;28306;55.744;37.578;2022-07-12T09:25:43;7.30;;;3.22;;
42690;SDS011;28306;55.744;37.578;2022-07-12T09:28:10;6.00;;;2.72;;
42690;SDS011;28306;55.744;37.578;2022-07-12T09:30:36;4.40;;;3.10;;
42690;SDS011;28306;55.744;37.578;2022-07-12T09:33:03;7.30;;;3.25;;
42690;SDS011;28306;55.744;37.578;2022-07-12T09:38:36;5.53;;;3.25;;
42690;SDS011;28306;55.744;37.578;2022-07-12T09:41:03;4.30;;;2.90;;
42690;SDS011;28306;55.744;37.578;2022-07-12T09:43:30;5.75;;;2.70;;
42690;SDS011;28306;55.744;37.578;2022-07-12T09:45:57;5.07;;;2.72;;
42690;SDS011;28306;55.744;37.578;2022-07-12T09:48:24;5.10;;;2.88;;
42690;SDS011;28306;55.744;37.578;2022-07-12T09:50:52;7.40;;;2.88;;
42690;SDS011;28306;55.744;37.578;2022-07-12T09:53:28;6.50;;;3.33;;
42690;SDS011;28306;55.744;37.578;2022-07-12T09:55:56;7.07;;;3.08;;
42690;SDS011;28306;55.744;37.578;2022-07-12T09:58:25;6.80;;;2.92;;
42690;SDS011;28306;55.744;37.578;2022-07-12T10:00:55;9.27;;;3.20;;
42690;SDS011;28306;55.744;37.578;2022-07-12T10:03:28;7.45;;;3.42;;
42690;SDS011;28306;55.744;37.578;2022-07-12T10:05:56;13.23;;;3.55;;
42690;SDS011;28306;55.744;37.578;2022-07-12T10:08:25;6.22;;;3.58;;
42690;SDS011;28306;55.744;37.578;2022-07-12T10:10:50;13.27;;;3.47;;
42690;SDS011;28306;55.744;37.578;2022-07-12T10:13:17;8.65;;;3.30;;
42690;SDS011;28306;55.744;37.578;2022-07-12T10:15:45;6.88;;;2.90;;
42690;SDS011;28306;55.744;37.578;2022-07-12T10:18:17;6.03;;;3.15;;
42690;SDS011;28306;55.744;37.578;2022-07-12T10:20:45;5.82;;;2.80;;
42690;SDS011;28306;55.744;37.578;2022-07-12T10:26:23;7.97;;;3.20;;
42690;SDS011;28306;55.744;37.578;2022-07-12T10:29:06;10.63;;;2.90;;
42690;SDS011;28306;55.744;37.578;2022-07-12T10:31:38;4.90;;;2.80;;
42690;SDS011;28306;55.744;37.578;2022-07-12T10:34:12;6.95;;;2.45;;
42690;SDS011;28306;55.744;37.578;2022-07-12T10:39:22;12.00;;;2.30;;
42690;SDS011;28306;55.744;37.578;2022-07-12T10:42:33;2.60;;;1.40;;
42690;SDS011;28306;55.744;37.578;2022-07-12T10:44:43;8.50;;;1.10;;
42690;SDS011;28306;55.744;37.578;2022-07-12T10:47:12;5.75;;;1.27;;
42690;SDS011;28306;55.744;37.578;2022-07-12T10:49:48;5.97;;;1.27;;
42690;SDS011;28306;55.744;37.578;2022-07-12T10:52:24;5.63;;;0.90;;
42690;SDS011;28306;55.744;37.578;2022-07-12T11:00:04;2.05;;;0.68;;
42690;SDS011;28306;55.744;37.578;2022-07-12T11:02:31;3.85;;;1.02;;
42690;SDS011;28306;55.744;37.578;2022-07-12T11:04:57;3.80;;;0.70;;
42690;SDS011;28306;55.744;37.578;2022-07-12T11:07:22;1.70;;;0.77;;
42690;SDS011;28306;55.744;37.578;2022-07-12T11:09:52;2.33;;;0.77;;
42690;SDS011;28306;55.744;37.578;2022-07-12T11:12:19;3.47;;;0.90;;
42690;SDS011;28306;55.744;37.578;2022-07-12T11:14:45;3.70;;;0.90;;
42690;SDS011;28306;55.744;37.578;2022-07-12T11:17:11;2.38;;;0.70;;
42690;SDS011;28306;55.744;37.578;2022-07-12T11:19:38;8.00;;;1.13;;
42690;SDS011;28306;55.744;37.578;2022-07-12T11:22:04;2.95;;;0.85;;
42690;SDS011;28306;55.744;37.578;2022-07-12T11:24:33;5.40;;;1.40;;
42690;SDS011;28306;55.744;37.578;2022-07-12T11:27:03;3.33;;;0.88;;
42690;SDS011;28306;55.744;37.578;2022-07-12T11:29:30;2.95;;;0.90;;
42690;SDS011;28306;55.744;37.578;2022-07-12T11:32:00;5.32;;;0.95;;
42690;SDS011;28306;55.744;37.578;2022-07-12T11:34:29;4.30;;;0.90;;
42690;SDS011;28306;55.744;37.578;2022-07-12T11:36:58;1.55;;;0.98;;
42690;SDS011;28306;55.744;37.578;2022-07-12T11:39:36;2.92;;;1.10;;
42690;SDS011;28306;55.744;37.578;2022-07-12T11:42:04;6.40;;;0.90;;
42690;SDS011;28306;55.744;37.578;2022-07-12T11:44:52;1.85;;;0.88;;
42690;SDS011;28306;55.744;37.578;2022-07-12T11:47:18;2.78;;;0.90;;
42690;SDS011;28306;55.744;37.578;2022-07-12T11:49:46;5.70;;;0.90;;
42690;SDS011;28306;55.744;37.578;2022-07-12T11:52:16;2.33;;;1.05;;
42690;SDS011;28306;55.744;37.578;2022-07-12T11:54:47;5.63;;;1.15;;
42690;SDS011;28306;55.744;37.578;2022-07-12T11:57:14;3.42;;;0.77;;
42690;SDS011;28306;55.744;37.578;2022-07-12T11:59:43;4.88;;;1.10;;
42690;SDS011;28306;55.744;37.578;2022-07-12T12:02:13;2.95;;;1.17;;
42690;SDS011;28306;55.744;37.578;2022-07-12T12:04:44;3.78;;;1.08;;
42690;SDS011;28306;55.744;37.578;2022-07-12T12:07:11;13.43;;;4.13;;
42690;SDS011;28306;55.744;37.578;2022-07-12T12:10:00;9.63;;;7.85;;
42690;SDS011;28306;55.744;37.578;2022-07-12T12:15:09;2.92;;;0.98;;
42690;SDS011;28306;55.744;37.578;2022-07-12T12:17:37;2.22;;;0.82;;
42690;SDS011;28306;55.744;37.578;2022-07-12T12:20:16;2.15;;;0.88;;
42690;SDS011;28306;55.744;37.578;2022-07-12T12:22:44;5.28;;;1.13;;
42690;SDS011;28306;55.744;37.578;2022-07-12T12:25:37;2.47;;;0.80;;
42690;SDS011;28306;55.744;37.578;2022-07-12T12:28:14;1.75;;;0.77;;
42690;SDS011;28306;55.744;37.578;2022-07-12T12:33:39;8.57;;;0.80;;
42690;SDS011;28306;55.744;37.578;2022-07-12T12:36:12;2.50;;;0.80;;
42690;SDS011;28306;55.744;37.578;2022-07-12T12:38:38;8.88;;;1.05;;
42690;SDS011;28306;55.744;37.578;2022-07-12T12:41:05;4.80;;;1.10;;
42690;SDS011;28306;55.744;37.578;2022-07-12T12:43:34;5.35;;;1.00;;
42690;SDS011;28306;55.744;37.578;2022-07-12T12:46:00;2.70;;;1.35;;
42690;SDS011;28306;55.744;37.578;2022-07-12T12:48:29;2.97;;;0.80;;
42690;SDS011;28306;55.744;37.578;2022-07-12T12:51:10;3.63;;;1.25;;
42690;SDS011;28306;55.744;37.578;2022-07-12T12:53:38;4.45;;;1.48;;
42690;SDS011;28306;55.744;37.578;2022-07-12T12:56:14;2.30;;;1.15;;
42690;SDS011;28306;55.744;37.578;2022-07-12T12:58:40;7.03;;;1.33;;
42690;SDS011;28306;55.744;37.578;2022-07-12T13:01:09;3.20;;;1.35;;
42690;SDS011;28306;55.744;37.578;2022-07-12T13:03:37;7.55;;;1.60;;
42690;SDS011;28306;55.744;37.578;2022-07-12T13:06:03;3.63;;;1.75;;
42690;SDS011;28306;55.744;37.578;2022-07-12T13:08:30;11.52;;;1.45;;
42690;SDS011;28306;55.744;37.578;2022-07-12T13:10:56;6.45;;;1.67;;
42690;SDS011;28306;55.744;37.578;2022-07-12T13:13:40;3.30;;;1.60;;
42690;SDS011;28306;55.744;37.578;2022-07-12T13:16:06;3.25;;;1.42;;
42690;SDS011;28306;55.744;37.578;2022-07-12T13:18:35;10.10;;;1.85;;
42690;SDS011;28306;55.744;37.578;2022-07-12T13:21:11;3.53;;;1.70;;
42690;SDS011;28306;55.744;37.578;2022-07-12T13:23:40;4.63;;;1.35;;
42690;SDS011;28306;55.744;37.578;2022-07-12T13:26:05;4.85;;;1.80;;
42690;SDS011;28306;55.744;37.578;2022-07-12T13:28:31;5.80;;;1.77;;
42690;SDS011;28306;55.744;37.578;2022-07-12T13:30:59;4.07;;;1.23;;
42690;SDS011;28306;55.744;37.578;2022-07-12T13:33:25;4.55;;;1.40;;
42690;SDS011;28306;55.744;37.578;2022-07-12T13:35:50;4.28;;;1.60;;
42690;SDS011;28306;55.744;37.578;2022-07-12T13:38:22;2.30;;;1.42;;
42690;SDS011;28306;55.744;37.578;2022-07-12T13:40:50;5.53;;;1.38;;
42690;SDS011;28306;55.744;37.578;2022-07-12T13:43:16;3.03;;;1.00;;
42690;SDS011;28306;55.744;37.578;2022-07-12T13:45:41;3.70;;;1.05;;
42690;SDS011;28306;55.744;37.578;2022-07-12T13:48:13;6.70;;;1.38;;
42690;SDS011;28306;55.744;37.578;2022-07-12T13:50:45;3.13;;;1.10;;
42690;SDS011;28306;55.744;37.578;2022-07-12T13:53:14;4.30;;;0.93;;
42690;SDS011;28306;55.744;37.578;2022-07-12T13:55:43;3.97;;;0.90;;
42690;SDS011;28306;55.744;37.578;2022-07-12T13:58:10;5.07;;;0.85;;
42690;SDS011;28306;55.744;37.578;2022-07-12T14:00:36;4.85;;;2.20;;
42690;SDS011;28306;55.744;37.578;2022-07-12T14:03:02;2.38;;;1.10;;
42690;SDS011;28306;55.744;37.578;2022-07-12T14:05:28;6.18;;;0.98;;
42690;SDS011;28306;55.744;37.578;2022-07-12T14:07:53;2.72;;;1.17;;
42690;SDS011;28306;55.744;37.578;2022-07-12T14:10:19;4.68;;;1.10;;
42690;SDS011;28306;55.744;37.578;2022-07-12T14:12:45;4.35;;;1.00;;
42690;SDS011;28306;55.744;37.578;2022-07-12T14:15:11;3.72;;;0.98;;
42690;SDS011;28306;55.744;37.578;2022-07-12T14:17:38;5.35;;;1.67;;
42690;SDS011;28306;55.744;37.578;2022-07-12T14:20:04;2.30;;;1.10;;
42690;SDS011;28306;55.744;37.578;2022-07-12T14:22:30;2.03;;;1.00;;
42690;SDS011;28306;55.744;37.578;2022-07-12T14:25:18;4.82;;;1.00;;
42690;SDS011;28306;55.744;37.578;2022-07-12T14:27:46;3.53;;;1.33;;
42690;SDS011;28306;55.744;37.578;2022-07-12T14:30:12;6.07;;;1.60;;
42690;SDS011;28306;55.744;37.578;2022-07-12T14:32:41;8.57;;;1.35;;
42690;SDS011;28306;55.744;37.578;2022-07-12T14:35:08;5.85;;;1.42;;
42690;SDS011;28306;55.744;37.578;2022-07-12T14:37:34;2.30;;;1.27;;
42690;SDS011;28306;55.744;37.578;2022-07-12T14:40:01;4.07;;;1.40;;
42690;SDS011;28306;55.744;37.578;2022-07-12T14:42:30;6.53;;;1.30;;
42690;SDS011;28306;55.744;37.578;2022-07-12T14:44:56;3.60;;;1.23;;
42690;SDS011;28306;55.744;37.578;2022-07-12T14:47:22;10.15;;;1.20;;
42690;SDS011;28306;55.744;37.578;2022-07-12T14:49:48;2.17;;;1.20;;
42690;SDS011;28306;55.744;37.578;2022-07-12T14:52:14;4.00;;;1.30;;
42690;SDS011;28306;55.744;37.578;2022-07-12T14:54:41;4.03;;;1.25;;
42690;SDS011;28306;55.744;37.578;2022-07-12T14:57:07;4.80;;;1.02;;
42690;SDS011;28306;55.744;37.578;2022-07-12T14:59:32;4.88;;;1.30;;